Time;durP1;ratioP1;P1;durP2;ratioP2;P2;SDS_P1;SDS_P2;PMS_P1;PMS_P2;Temp;Humidity;BMP_temperature;BMP_pressure;BME280_temperature;BME280_humidity;BME280_pressure;Samples;Min_cycle;Max_cycle;Signal;HPM_P1;HPM_P2
2023/04/27 00:01:58;;;;;;;4.90;3.03;;;4.30;99.90;;;2.93;100.00;97751.91;4987153;28;20134;-74
2023/04/27 00:04:25;;;;;;;8.45;3.45;;;4.40;99.90;;;2.80;100.00;97748.59;4982330;28;20057;-75
2023/04/27 00:06:53;;;;;;;8.93;3.03;;;4.30;99.90;;;2.51;100.00;97756.53;4967057;28;20057;-75
2023/04/27 00:09:20;;;;;;;6.05;3.40;;;4.20;99.90;;;2.32;100.00;97752.41;4986710;28;20058;-75
2023/04/27 00:11:47;;;;;;;8.43;3.45;;;4.10;99.90;;;2.22;100.00;97762.72;4982839;28;20703;-75
2023/04/27 00:14:15;;;;;;;7.25;3.88;;;4.00;99.90;;;2.32;100.00;97771.19;4970129;28;20053;-74
2023/04/27 00:16:42;;;;;;;5.82;3.42;;;3.90;99.90;;;2.32;100.00;97763.50;4988484;28;20046;-75
2023/04/27 00:19:22;;;;;;;6.13;3.10;;;3.90;99.90;;;2.23;100.00;97777.19;4980646;28;20124;-73
2023/04/27 00:21:52;;;;;;;6.32;3.20;;;3.90;99.90;;;2.37;100.00;97771.16;4980958;28;20050;-74
2023/04/27 00:24:19;;;;;;;8.38;4.75;;;3.80;99.90;;;2.29;100.00;97769.50;4989535;28;20046;-74
2023/04/27 00:26:46;;;;;;;7.47;4.85;;;3.70;99.90;;;2.18;100.00;97770.41;4989891;28;20085;-75
2023/04/27 00:29:13;;;;;;;9.77;5.07;;;3.70;99.90;;;2.33;100.00;97767.78;4990415;28;20137;-73
2023/04/27 00:31:41;;;;;;;9.13;4.88;;;3.70;99.90;;;2.42;100.00;97774.56;4985930;28;20058;-74
2023/04/27 00:34:08;;;;;;;11.00;5.30;;;3.80;99.90;;;2.42;100.00;97779.69;4984129;28;20046;-74
2023/04/27 00:36:35;;;;;;;10.25;4.85;;;3.80;99.90;;;2.41;100.00;97783.91;4987188;28;20101;-74
2023/04/27 00:39:05;;;;;;;8.00;4.28;;;3.90;99.90;;;2.17;100.00;97781.53;4985279;28;20052;-74
2023/04/27 00:41:32;;;;;;;8.20;4.38;;;3.80;99.90;;;2.26;100.00;97776.34;4988549;28;20085;-74
2023/04/27 00:43:59;;;;;;;7.28;3.67;;;3.80;99.90;;;2.27;100.00;97785.72;4987720;28;20054;-74
2023/04/27 00:46:26;;;;;;;10.55;3.60;;;3.80;99.90;;;1.97;100.00;97777.38;4992473;28;20072;-74
2023/04/27 00:48:55;;;;;;;8.30;4.15;;;3.70;99.90;;;2.02;100.00;97777.34;4988073;28;20047;-75
2023/04/27 00:51:26;;;;;;;11.52;5.38;;;3.50;99.90;;;2.19;100.00;97774.66;4987971;28;20053;-75
2023/04/27 00:53:57;;;;;;;13.10;5.65;;;3.60;99.90;;;2.18;100.00;97772.97;4985945;28;20050;-74
2023/04/27 00:56:25;;;;;;;8.68;4.50;;;3.50;99.90;;;2.27;100.00;97770.38;4978156;28;20050;-74
2023/04/27 00:58:52;;;;;;;8.25;5.00;;;3.60;99.90;;;2.30;100.00;97762.66;4990627;28;20797;-75
2023/04/27 01:01:20;;;;;;;10.68;4.90;;;3.60;99.90;;;2.37;100.00;97764.31;4987856;28;20148;-75
2023/04/27 01:03:47;;;;;;;7.97;4.25;;;3.60;99.90;;;2.43;100.00;97758.31;4988060;28;20113;-74
2023/04/27 01:06:15;;;;;;;8.77;4.13;;;3.70;99.90;;;2.45;100.00;97757.44;4991106;28;20115;-75
2023/04/27 01:08:42;;;;;;;6.88;4.47;;;3.70;99.90;;;2.50;100.00;97762.50;5001785;28;20502;-74
2023/04/27 01:11:09;;;;;;;6.93;4.45;;;3.80;99.90;;;2.50;100.00;97765.91;4986782;28;20074;-74
2023/04/27 01:13:36;;;;;;;7.35;4.50;;;3.80;99.90;;;2.51;100.00;97767.63;4988173;28;20069;-75
2023/04/27 01:16:04;;;;;;;8.82;4.20;;;3.80;99.90;;;2.54;100.00;97771.03;5001979;28;20486;-74
2023/04/27 01:18:32;;;;;;;7.05;4.07;;;3.90;99.90;;;2.48;100.00;97770.19;4988570;28;21047;-74
2023/04/27 01:21:00;;;;;;;7.07;3.53;;;3.90;99.90;;;2.55;100.00;97762.47;4987649;28;20057;-73
2023/04/27 01:23:28;;;;;;;6.75;2.88;;;3.90;99.90;;;2.59;100.00;97769.28;5007016;28;20100;-73
2023/04/27 01:25:55;;;;;;;12.38;3.50;;;4.00;99.90;;;2.94;100.00;97768.97;4983425;28;20050;-74
2023/04/27 01:28:22;;;;;;;8.93;3.70;;;4.00;99.90;;;2.83;100.00;97774.22;4989046;28;20431;-74
2023/04/27 01:30:49;;;;;;;6.75;3.38;;;4.00;99.90;;;2.85;100.00;97776.75;4985357;28;20642;-74
2023/04/27 01:33:16;;;;;;;6.70;2.95;;;4.10;99.90;;;2.89;100.00;97774.16;4980229;28;20451;-74
2023/04/27 01:35:43;;;;;;;7.97;3.47;;;4.10;99.90;;;2.93;100.00;97780.94;4992254;28;20128;-74
2023/04/27 01:38:11;;;;;;;9.18;2.63;;;4.20;99.90;;;2.89;100.00;97775.88;4987173;28;20059;-74
2023/04/27 01:40:38;;;;;;;4.25;2.90;;;4.20;99.90;;;3.03;100.00;97783.44;4990959;28;20418;-74
2023/04/27 01:43:05;;;;;;;6.22;3.13;;;4.30;99.90;;;2.96;100.00;97785.19;4984416;28;20050;-74
2023/04/27 01:45:33;;;;;;;5.43;3.20;;;4.30;99.90;;;3.11;100.00;97781.66;4986048;28;20562;-74
2023/04/27 01:48:00;;;;;;;7.88;2.88;;;4.40;99.90;;;3.15;100.00;97780.78;4987119;28;20529;-73
2023/04/27 01:50:27;;;;;;;6.78;2.85;;;4.40;99.90;;;3.25;100.00;97776.38;4982024;28;20061;-74
2023/04/27 01:52:54;;;;;;;6.95;3.80;;;4.40;99.90;;;3.13;100.00;97783.34;4987092;28;20050;-76
2023/04/27 01:55:21;;;;;;;5.07;2.60;;;4.50;99.90;;;3.23;100.00;97785.81;4996406;28;20054;-76
2023/04/27 01:57:48;;;;;;;6.25;2.70;;;4.50;99.90;;;3.25;100.00;97789.22;4986922;28;20047;-76
2023/04/27 02:00:16;;;;;;;5.97;2.53;;;4.50;99.90;;;3.29;100.00;97788.31;4984809;28;20482;-76
2023/04/27 02:02:44;;;;;;;4.43;2.22;;;4.60;99.90;;;3.33;100.00;97790.84;4988181;28;20046;-76
2023/04/27 02:05:11;;;;;;;5.75;2.47;;;4.60;99.90;;;3.27;100.00;97790.91;4995016;28;20065;-75
2023/04/27 02:07:38;;;;;;;5.78;2.10;;;4.60;99.90;;;3.34;100.00;97792.53;4972513;28;20042;-76
2023/04/27 02:10:06;;;;;;;8.35;2.83;;;4.60;99.90;;;3.26;100.00;97793.47;4989630;28;20065;-73
2023/04/27 02:12:33;;;;;;;4.88;2.65;;;4.60;99.90;;;3.11;100.00;97803.03;4987072;28;20499;-76
2023/04/27 02:15:00;;;;;;;6.53;2.45;;;4.60;99.90;;;3.15;100.00;97806.41;4989482;28;20050;-75
2023/04/27 02:17:28;;;;;;;6.20;2.30;;;4.50;99.90;;;3.16;100.00;97817.53;4989161;28;20142;-76
2023/04/27 02:19:55;;;;;;;5.15;2.28;;;4.50;99.90;;;3.26;100.00;97812.28;4991564;28;20148;-76
2023/04/27 02:22:22;;;;;;;6.30;2.20;;;4.50;99.90;;;3.37;100.00;97801.06;4973736;28;20362;-76
2023/04/27 02:24:49;;;;;;;7.53;2.28;;;4.50;99.90;;;3.50;100.00;97788.09;4973059;28;20042;-76
2023/04/27 02:27:16;;;;;;;3.83;2.30;;;4.60;99.90;;;3.55;100.00;97794.00;4981842;28;20086;-76
2023/04/27 02:29:44;;;;;;;7.35;2.15;;;4.70;99.90;;;3.58;100.00;97788.03;4987243;28;20050;-74
2023/04/27 02:32:11;;;;;;;4.97;2.17;;;4.70;99.90;;;3.49;100.00;97788.09;4985506;28;20065;-76
2023/04/27 02:34:38;;;;;;;9.18;2.65;;;4.80;99.90;;;3.48;100.00;97792.38;4984495;28;20057;-76
2023/04/27 02:37:05;;;;;;;7.68;2.45;;;4.80;99.90;;;3.49;100.00;97799.22;4993467;28;20050;-76
2023/04/27 02:39:33;;;;;;;6.25;2.17;;;4.80;99.90;;;3.59;100.00;97794.84;4980091;28;20197;-76
2023/04/27 02:42:02;;;;;;;6.22;1.95;;;4.80;99.90;;;3.65;100.00;97791.34;4988982;28;20051;-76
2023/04/27 02:44:29;;;;;;;5.32;1.92;;;4.80;99.90;;;3.65;100.00;97796.47;4989449;28;20061;-76
2023/04/27 02:46:56;;;;;;;6.78;1.98;;;4.90;99.90;;;3.69;100.00;97795.56;4993487;28;20154;-76
2023/04/27 02:49:23;;;;;;;5.70;1.63;;;4.90;99.90;;;3.73;100.00;97794.69;4991945;28;20046;-76
2023/04/27 02:51:50;;;;;;;5.95;2.17;;;4.90;99.90;;;3.83;100.00;97792.84;5008957;28;20060;-76
2023/04/27 02:54:17;;;;;;;6.50;2.13;;;5.00;99.90;;;3.82;100.00;97792.00;4987571;28;20609;-77
2023/04/27 02:56:44;;;;;;;4.47;2.00;;;5.00;99.90;;;3.88;100.00;97789.38;4993657;28;20145;-75
2023/04/27 02:59:11;;;;;;;4.78;1.90;;;5.00;99.90;;;3.93;100.00;97787.56;4988826;28;20086;-75
2023/04/27 03:01:39;;;;;;;8.00;2.40;;;5.00;99.90;;;3.98;100.00;97796.06;4996280;28;20114;-76
2023/04/27 03:04:06;;;;;;;6.25;2.30;;;5.10;99.90;;;4.05;100.00;97793.44;4991193;28;20446;-74
2023/04/27 03:06:35;;;;;;;6.68;1.92;;;5.10;99.90;;;4.07;100.00;97787.41;4985853;28;20137;-76
2023/04/27 03:09:02;;;;;;;7.18;2.10;;;5.20;99.90;;;4.06;100.00;97780.56;4971113;28;20581;-77
2023/04/27 03:11:30;;;;;;;7.82;1.90;;;5.20;99.90;;;4.12;100.00;97782.19;4991306;28;20100;-77
2023/04/27 03:13:57;;;;;;;4.90;1.90;;;5.30;99.90;;;4.16;100.00;97783.84;4989323;28;20065;-76
2023/04/27 03:16:24;;;;;;;5.38;1.63;;;5.40;99.90;;;4.07;100.00;97783.97;4974034;28;20065;-76
2023/04/27 03:18:51;;;;;;;5.95;2.13;;;5.40;99.90;;;4.17;100.00;97788.13;4991861;28;20078;-76
2023/04/27 03:21:18;;;;;;;4.53;1.95;;;5.40;99.90;;;4.12;100.00;97782.19;4989929;28;20046;-76
2023/04/27 03:23:45;;;;;;;4.53;1.90;;;5.40;99.90;;;4.21;100.00;97771.78;4967211;28;20046;-75
2023/04/27 03:26:13;;;;;;;6.93;2.00;;;5.40;99.90;;;4.15;100.00;97764.16;4988060;28;20050;-75
2023/04/27 03:28:41;;;;;;;4.78;1.83;;;5.50;99.90;;;4.21;100.00;97764.09;4996510;28;20581;-76
2023/04/27 03:31:11;;;;;;;4.53;2.00;;;5.40;99.90;;;4.22;100.00;97768.38;4988262;28;20050;-75
2023/04/27 03:33:39;;;;;;;6.13;2.20;;;5.40;99.90;;;4.22;100.00;97768.38;4974080;28;20045;-75
2023/04/27 03:36:08;;;;;;;5.00;1.92;;;5.40;99.90;;;4.17;100.00;97768.44;4981691;28;20050;-75
2023/04/27 03:38:36;;;;;;;6.13;2.20;;;5.40;99.90;;;4.22;100.00;97763.22;4982979;28;20054;-75
2023/04/27 03:41:03;;;;;;;7.70;2.38;;;5.50;99.90;;;4.26;100.00;97764.84;4989202;28;20045;-76
2023/04/27 03:43:30;;;;;;;6.30;1.88;;;5.50;99.90;;;4.12;100.00;97770.19;4991480;28;20434;-75
2023/04/27 03:45:57;;;;;;;7.18;2.75;;;5.50;99.90;;;4.07;100.00;97783.97;4988233;28;20050;-76
2023/04/27 03:48:24;;;;;;;8.40;2.47;;;5.50;99.90;;;4.08;100.00;97780.53;4992161;28;20073;-76
2023/04/27 03:50:51;;;;;;;9.52;2.58;;;5.40;99.90;;;4.25;100.00;97780.31;4985112;28;20060;-75
2023/04/27 03:53:18;;;;;;;7.68;2.15;;;5.40;99.90;;;4.28;100.00;97775.97;4983910;28;20055;-76
2023/04/27 03:55:46;;;;;;;6.70;2.30;;;5.40;99.90;;;4.34;100.00;97759.63;4986476;28;20050;-76
2023/04/27 03:58:13;;;;;;;6.55;2.42;;;5.50;99.90;;;4.33;100.00;97761.34;4967157;28;20766;-75
2023/04/27 04:00:40;;;;;;;5.13;2.45;;;5.50;99.90;;;4.30;100.00;97765.69;4987492;28;20509;-76
2023/04/27 04:03:07;;;;;;;6.35;2.40;;;5.50;99.90;;;4.29;100.00;97764.84;4987017;28;20041;-76
2023/04/27 04:05:35;;;;;;;6.55;1.90;;;5.50;99.90;;;4.18;100.00;97767.56;4987410;28;20042;-76
2023/04/27 04:08:02;;;;;;;5.22;2.47;;;5.50;99.90;;;4.17;100.00;97778.72;4989675;28;20046;-76
2023/04/27 04:10:30;;;;;;;5.53;1.95;;;5.50;99.90;;;4.22;100.00;97780.34;4988192;28;20514;-75
2023/04/27 04:12:56;;;;;;;7.20;2.40;;;5.40;99.90;;;4.07;100.00;97787.41;4987445;28;20050;-76
2023/04/27 04:15:24;;;;;;;5.07;1.95;;;5.50;99.90;;;4.15;100.00;97777.00;4989731;28;20054;-76
2023/04/27 04:17:51;;;;;;;6.88;2.50;;;5.50;99.90;;;4.03;100.00;97779.75;4983080;28;20072;-77
2023/04/27 04:20:18;;;;;;;7.57;2.65;;;5.40;99.90;;;4.12;100.00;97777.91;4987671;28;20104;-76
2023/04/27 04:22:45;;;;;;;4.13;1.95;;;5.40;99.90;;;4.12;100.00;97780.47;4984851;28;20050;-75
2023/04/27 04:25:13;;;;;;;6.38;2.30;;;5.40;99.90;;;4.03;100.00;97783.16;4998554;28;20390;-75
2023/04/27 04:27:40;;;;;;;4.38;1.90;;;5.30;99.90;;;3.94;100.00;97784.13;4999069;28;20053;-76
2023/04/27 04:30:08;;;;;;;6.07;2.38;;;5.30;99.90;;;4.01;100.00;97781.50;4980451;28;20084;-75
2023/04/27 04:32:38;;;;;;;5.90;2.42;;;5.30;99.90;;;4.06;100.00;97772.88;4983027;28;20049;-75
2023/04/27 04:35:05;;;;;;;5.28;2.00;;;5.20;99.90;;;4.07;100.00;97771.97;4970301;28;20065;-76
2023/04/27 04:37:36;;;;;;;6.18;2.30;;;5.20;99.90;;;3.98;100.00;97772.09;4984198;28;20770;-76
2023/04/27 04:40:09;;;;;;;6.57;2.50;;;5.30;99.90;;;4.00;100.00;97764.41;4986563;28;20140;-76
2023/04/27 04:42:36;;;;;;;5.45;2.17;;;5.30;99.90;;;4.10;100.00;97768.53;4991566;28;20162;-76
2023/04/27 04:45:05;;;;;;;6.47;2.42;;;5.20;99.90;;;4.13;100.00;97766.78;4983435;28;20046;-76
2023/04/27 04:47:33;;;;;;;8.82;2.60;;;5.30;99.90;;;4.19;100.00;97760.69;4982158;28;20050;-76
2023/04/27 04:50:01;;;;;;;7.00;2.30;;;5.40;99.90;;;4.09;100.00;97769.41;4982345;28;20049;-76
2023/04/27 04:52:28;;;;;;;7.07;2.33;;;5.40;99.90;;;4.01;100.00;97766.91;4989382;28;20054;-75
2023/04/27 04:54:55;;;;;;;7.18;2.17;;;5.30;99.90;;;3.94;100.00;97771.28;4987214;28;20057;-75
2023/04/27 04:57:22;;;;;;;6.68;2.53;;;5.30;99.90;;;3.92;100.00;97778.19;4989566;28;20058;-76
2023/04/27 04:59:49;;;;;;;5.72;2.22;;;5.20;99.90;;;3.99;100.00;97778.94;4989554;28;20100;-76
2023/04/27 05:02:17;;;;;;;7.30;2.45;;;5.20;99.90;;;4.01;100.00;97784.91;4984511;28;20048;-77
2023/04/27 05:04:44;;;;;;;7.13;2.00;;;5.20;99.90;;;4.10;100.00;97783.94;4986943;28;20061;-76
2023/04/27 05:07:12;;;;;;;8.68;2.47;;;5.30;99.90;;;4.02;100.00;97790.91;4990084;28;20050;-75
2023/04/27 05:09:41;;;;;;;6.97;2.05;;;5.30;99.90;;;3.98;100.00;97800.34;4989510;28;20054;-76
2023/04/27 05:12:09;;;;;;;7.93;2.33;;;5.30;99.90;;;3.99;100.00;97809.75;4989623;28;20416;-75
2023/04/27 05:14:36;;;;;;;6.18;2.13;;;5.20;99.90;;;4.07;100.00;97807.09;4984476;28;20054;-75
2023/04/27 05:17:03;;;;;;;5.15;2.20;;;5.30;99.90;;;4.09;100.00;97808.78;4964871;28;20066;-76
2023/04/27 05:19:31;;;;;;;5.70;2.10;;;5.30;99.90;;;4.02;100.00;97817.44;4988460;28;20162;-75
2023/04/27 05:21:58;;;;;;;7.07;2.05;;;5.30;99.90;;;4.13;100.00;97814.75;4994531;28;20054;-76
2023/04/27 05:24:25;;;;;;;4.40;2.10;;;5.30;99.90;;;4.21;100.00;97812.91;4988083;28;20053;-76
2023/04/27 05:26:53;;;;;;;7.82;1.90;;;5.40;99.90;;;4.33;100.00;97811.88;4993732;28;20038;-75
2023/04/27 05:29:21;;;;;;;5.97;2.25;;;5.40;99.90;;;4.43;100.00;97807.47;4989475;28;20094;-75
2023/04/27 05:31:48;;;;;;;8.35;2.72;;;5.40;99.90;;;4.65;100.00;97800.28;4993611;28;20053;-75
2023/04/27 05:34:16;;;;;;;10.40;2.70;;;5.50;99.90;;;4.98;100.00;97799.75;4991598;28;20058;-75
2023/04/27 05:36:43;;;;;;;6.57;2.17;;;5.70;99.90;;;4.96;100.00;97801.50;4991022;28;20573;-76
2023/04/27 05:39:10;;;;;;;7.43;2.60;;;5.90;99.90;;;5.23;100.00;97799.31;4994432;28;20050;-76
2023/04/27 05:41:38;;;;;;;8.82;2.33;;;6.10;99.90;;;5.42;100.00;97795.53;4995965;28;20053;-76
2023/04/27 05:44:06;;;;;;;7.05;2.72;;;6.30;99.90;;;5.64;100.00;97784.84;4994105;28;20047;-75
2023/04/27 05:46:33;;;;;;;7.22;2.33;;;6.50;99.90;;;5.83;100.00;97781.00;4985420;28;20146;-75
2023/04/27 05:49:09;;;;;;;5.15;2.15;;;6.60;99.90;;;6.02;100.00;97781.53;4986671;28;20047;-75
2023/04/27 05:51:37;;;;;;;5.95;2.40;;;6.80;99.90;;;6.01;100.00;97787.53;4985839;28;20050;-75
2023/04/27 05:54:07;;;;;;;11.10;2.55;;;7.00;99.90;;;6.06;100.00;97780.56;4985796;28;20050;-75
2023/04/27 05:56:36;;;;;;;8.88;2.63;;;7.00;99.90;;;6.13;100.00;97775.28;4988477;28;20061;-75
2023/04/27 05:59:04;;;;;;;8.98;2.17;;;7.10;99.90;;;6.28;100.00;97780.94;4992114;28;20151;-76
2023/04/27 06:01:31;;;;;;;7.03;2.20;;;7.10;99.90;;;6.43;100.00;97781.47;4988841;28;20949;-75
2023/04/27 06:04:00;;;;;;;8.80;2.40;;;7.20;99.90;;;6.58;100.00;97778.56;4987973;28;20058;-74
2023/04/27 06:06:31;;;;;;;8.07;2.28;;;7.30;99.90;;;6.77;100.00;97783.28;4996088;28;20494;-75
2023/04/27 06:09:30;;;;;;;7.72;2.40;;;7.50;99.90;;;6.87;100.00;97782.19;4990762;28;20061;-76
2023/04/27 06:12:01;;;;;;;6.65;2.67;;;7.70;99.90;;;7.05;100.00;97775.72;4989108;28;20130;-75
2023/04/27 06:14:29;;;;;;;6.25;2.40;;;7.70;99.90;;;7.04;100.00;97784.34;4989377;28;20508;-76
2023/04/27 06:16:56;;;;;;;6.85;2.03;;;7.80;99.90;;;6.98;100.00;97784.47;4998795;28;20045;-75
2023/04/27 06:19:23;;;;;;;7.75;2.60;;;7.90;99.90;;;6.93;100.00;97788.91;4994914;28;20050;-76
2023/04/27 06:21:51;;;;;;;8.48;2.95;;;7.90;99.90;;;6.94;100.00;97785.47;4991757;28;20046;-75
2023/04/27 06:24:18;;;;;;;6.63;2.83;;;7.90;99.90;;;7.04;100.00;97785.16;4993671;28;20054;-76
2023/04/27 06:26:45;;;;;;;6.63;3.03;;;7.90;99.90;;;7.25;100.00;97790.66;4980954;28;20042;-76
2023/04/27 06:29:13;;;;;;;5.65;2.83;;;8.00;99.90;;;7.28;100.00;97785.44;4992658;28;20066;-75
2023/04/27 06:31:40;;;;;;;5.60;2.40;;;8.10;99.90;;;7.75;100.00;97789.34;4992163;28;20469;-75
2023/04/27 06:34:08;;;;;;;9.25;2.70;;;8.30;99.90;;;7.74;100.00;97787.63;4995196;28;20042;-75
2023/04/27 06:36:38;;;;;;;7.72;2.50;;;8.50;99.90;;;7.94;100.00;97792.25;4996156;28;20525;-75
2023/04/27 06:39:05;;;;;;;7.95;2.30;;;8.60;99.90;;;7.78;100.00;97791.00;4971526;28;20121;-75
2023/04/27 06:41:32;;;;;;;7.82;2.78;;;8.70;99.90;;;8.02;100.00;97786.00;4989715;28;20046;-75
2023/04/27 06:43:59;;;;;;;6.93;2.35;;;8.90;99.90;;;8.37;100.00;97793.56;4986908;28;20427;-74
2023/04/27 06:46:26;;;;;;;8.02;2.20;;;9.00;99.90;;;8.56;100.00;97791.28;4989185;28;20176;-75
2023/04/27 06:48:53;;;;;;;8.05;2.47;;;9.20;99.90;;;8.77;100.00;97783.75;4975257;28;20051;-75
2023/04/27 06:51:21;;;;;;;6.50;2.25;;;9.40;99.90;;;8.85;100.00;97789.53;4991739;28;20061;-75
2023/04/27 06:53:48;;;;;;;6.00;2.22;;;9.50;99.90;;;8.81;100.00;97790.53;5004148;28;20054;-75
2023/04/27 06:56:16;;;;;;;9.52;2.80;;;9.60;99.90;;;9.29;100.00;97779.44;4987278;28;20068;-75
2023/04/27 06:58:42;;;;;;;7.70;2.50;;;9.70;99.90;;;9.34;100.00;97776.69;4987443;28;20054;-74
2023/04/27 07:01:09;;;;;;;9.30;2.10;;;9.80;99.90;;;9.48;100.00;97779.63;4990649;28;20152;-74
2023/04/27 07:03:36;;;;;;;8.23;2.40;;;9.90;99.90;;;9.75;100.00;97784.75;4995932;28;20050;-75
2023/04/27 07:06:05;;;;;;;8.82;2.75;;;10.10;99.90;;;9.67;100.00;97771.22;4984991;28;20082;-75
2023/04/27 07:08:32;;;;;;;6.18;2.35;;;10.20;99.90;;;9.77;100.00;97775.19;4991155;28;20054;-75
2023/04/27 07:11:00;;;;;;;5.88;2.45;;;10.40;99.90;;;10.07;100.00;97775.78;4992080;28;20058;-76
2023/04/27 07:13:27;;;;;;;8.27;3.08;;;10.60;99.90;;;10.09;100.00;97770.56;4993956;28;20533;-75
2023/04/27 07:15:59;;;;;;;8.35;2.40;;;10.70;99.90;;;10.14;100.00;97781.59;4981180;28;20050;-75
2023/04/27 07:18:29;;;;;;;9.15;2.78;;;10.90;99.90;;;10.18;100.00;97781.41;4995252;28;20050;-75
2023/04/27 07:20:56;;;;;;;9.70;2.67;;;11.00;99.90;;;10.33;100.00;97774.84;4986930;28;20082;-75
2023/04/27 07:23:24;;;;;;;8.32;2.65;;;11.00;99.90;;;10.23;100.00;97791.63;4989845;28;20062;-75
2023/04/27 07:25:51;;;;;;;9.18;3.08;;;11.00;99.90;;;10.32;100.00;97787.88;4990735;28;20047;-75
2023/04/27 07:28:19;;;;;;;8.15;3.38;;;11.10;99.90;;;10.51;100.00;97780.22;4984882;28;20160;-75
2023/04/27 07:30:46;;;;;;;9.38;2.78;;;11.10;99.90;;;10.82;100.00;97772.91;4991492;28;20045;-75
2023/04/27 07:33:15;;;;;;;10.27;2.63;;;11.20;99.90;;;10.93;100.00;97771.63;4991502;28;20463;-74
2023/04/27 07:35:42;;;;;;;12.38;2.88;;;11.40;99.90;;;11.08;100.00;97771.84;4990827;28;20565;-74
2023/04/27 07:38:52;;;;;;;9.15;3.00;;;11.60;99.90;;;11.09;100.00;97770.94;4985702;28;20061;-74
2023/04/27 07:41:20;;;;;;;7.95;2.97;;;11.60;99.90;;;11.25;100.00;97771.13;4992180;28;20133;-74
2023/04/27 07:43:47;;;;;;;6.82;2.28;;;11.80;99.90;;;11.29;100.00;97761.47;4994801;28;20788;-75
2023/04/27 07:46:13;;;;;;;9.52;2.65;;;11.90;99.90;;;11.55;100.00;97759.50;4995077;28;20046;-74
2023/04/27 07:48:41;;;;;;;5.88;2.40;;;12.10;99.90;;;11.55;100.00;97749.09;4966761;28;20444;-74
2023/04/27 07:51:08;;;;;;;7.53;2.95;;;12.20;99.90;;;11.28;100.00;97755.41;4986279;28;20049;-74
2023/04/27 07:53:35;;;;;;;11.73;2.65;;;12.10;99.90;;;11.44;100.00;97754.75;4989618;28;20061;-75
2023/04/27 07:56:05;;;;;;;7.18;2.42;;;12.10;99.90;;;11.78;100.00;97756.72;4994322;28;20047;-75
2023/04/27 07:58:32;;;;;;;4.35;1.85;;;12.30;99.90;;;11.82;100.00;97749.63;4990798;28;20057;-75
2023/04/27 08:00:59;;;;;;;8.50;2.40;;;12.50;99.90;;;12.01;100.00;97758.31;4992420;28;20054;-74
2023/04/27 08:03:27;;;;;;;8.77;2.80;;;12.70;99.90;;;12.19;100.00;97756.63;4965377;28;20426;-74
2023/04/27 08:05:54;;;;;;;6.95;2.33;;;;;;;12.55;100.00;97755.81;4984596;28;20097;-74
2023/04/27 08:08:22;;;;;;;8.48;2.85;;;13.00;99.90;;;12.72;100.00;97750.63;4988264;28;20050;-76
2023/04/27 08:10:51;;;;;;;6.22;2.83;;;13.30;99.90;;;12.47;100.00;97756.16;4990355;28;20602;-74
2023/04/27 08:13:18;;;;;;;6.78;2.50;;;13.40;99.90;;;12.77;100.00;97751.28;4984829;28;20133;-74
2023/04/27 08:15:45;;;;;;;6.97;2.28;;;13.40;99.90;;;13.51;100.00;97747.59;4990345;28;20054;-74
2023/04/27 08:18:12;;;;;;;11.07;2.58;;;13.60;99.90;;;13.34;100.00;97751.09;4994773;28;20176;-74
2023/04/27 08:20:39;;;;;;;13.43;2.35;;;13.70;99.90;;;13.14;100.00;97748.59;4984186;28;20748;-74
2023/04/27 08:23:06;;;;;;;7.38;2.33;;;13.70;99.90;;;13.36;100.00;97748.38;4990572;28;20077;-74
2023/04/27 08:25:35;;;;;;;6.50;1.90;;;13.90;99.90;;;13.85;100.00;97742.38;4991069;28;20050;-75
2023/04/27 08:28:02;;;;;;;6.20;2.58;;;14.00;99.90;;;14.31;100.00;97748.56;4992441;28;20128;-74
2023/04/27 08:30:30;;;;;;;10.52;2.38;;;14.30;99.90;;;14.20;100.00;97751.75;4995541;28;20081;-74
2023/04/27 08:32:59;;;;;;;11.20;2.55;;;14.50;99.90;;;13.95;100.00;97744.41;4991371;28;20088;-75
2023/04/27 08:35:26;;;;;;;5.50;2.08;;;14.60;99.90;;;13.69;100.00;97748.41;4992139;28;20068;-75
2023/04/27 08:37:53;;;;;;;7.85;2.17;;;14.70;99.90;;;14.07;100.00;97750.75;4993609;28;20073;-73
2023/04/27 08:40:20;;;;;;;6.38;2.08;;;14.70;99.90;;;14.28;100.00;97748.75;4993219;28;20082;-74
2023/04/27 08:42:59;;;;;;;9.55;2.17;;;14.80;99.90;;;14.29;100.00;97739.13;4993449;28;20533;-74
2023/04/27 08:45:27;;;;;;;10.23;2.72;;;14.90;99.90;;;13.92;100.00;97751.56;4992775;28;20047;-75
2023/04/27 08:47:54;;;;;;;5.68;2.20;;;14.90;99.80;;;14.19;100.00;97742.25;4994359;28;20503;-74
2023/04/27 08:50:23;;;;;;;6.90;2.50;;;14.90;99.90;;;13.70;100.00;97750.09;4992666;28;20056;-75
2023/04/27 08:52:51;;;;;;;6.80;2.33;;;14.90;99.90;;;13.75;100.00;97750.72;4988424;28;20059;-74
2023/04/27 08:55:19;;;;;;;6.78;2.03;;;14.80;99.50;;;13.96;100.00;97745.28;4993302;28;20042;-74
2023/04/27 08:58:13;;;;;;;8.50;2.53;;;14.80;99.50;;;13.73;100.00;97747.34;4997330;28;20535;-74
2023/04/27 09:00:42;;;;;;;7.65;2.28;;;14.80;99.10;;;13.98;100.00;97746.00;4962079;28;20050;-75
2023/04/27 09:03:22;;;;;;;11.02;2.22;;;14.80;99.70;;;14.02;100.00;97747.53;4992351;28;20574;-74
2023/04/27 09:05:50;;;;;;;9.75;1.75;;;14.80;99.10;;;14.56;100.00;97745.47;4992429;28;20054;-75
2023/04/27 09:08:47;;;;;;;7.47;2.15;;;14.90;99.50;;;14.01;100.00;97738.03;4986566;28;20056;-75
2023/04/27 09:11:30;;;;;;;7.90;1.90;;;14.90;99.30;;;14.43;100.00;97741.81;4982100;28;20129;-74
2023/04/27 09:14:03;;;;;;;4.25;1.48;;;15.10;98.80;;;14.80;100.00;97742.38;4991743;28;21033;-74
2023/04/27 09:16:31;;;;;;;13.52;2.40;;;15.30;98.80;;;14.91;100.00;97731.31;4989922;28;20086;-74
2023/04/27 09:18:59;;;;;;;7.30;1.98;;;15.60;98.80;;;14.91;100.00;97732.16;4992610;28;20056;-75
2023/04/27 09:21:29;;;;;;;5.22;1.95;;;15.70;98.80;;;14.92;100.00;97733.03;4985117;28;20220;-75
2023/04/27 09:23:56;;;;;;;7.25;2.13;;;15.60;98.00;;;14.96;100.00;97731.91;4985322;28;20129;-76
2023/04/27 09:26:27;;;;;;;6.03;1.98;;;15.70;97.60;;;15.34;100.00;97732.25;4988116;28;20054;-75
2023/04/27 09:28:58;;;;;;;10.32;1.92;;;15.90;97.60;;;15.19;100.00;97730.56;4987972;28;20488;-75
2023/04/27 09:31:32;;;;;;;10.80;1.75;;;16.00;97.00;;;15.41;100.00;97730.13;4990619;28;20042;-74
2023/04/27 09:34:00;;;;;;;7.60;2.00;;;16.00;97.10;;;15.37;100.00;97726.00;4994220;28;20046;-75
2023/04/27 09:36:31;;;;;;;6.47;1.90;;;16.20;98.00;;;15.69;100.00;97729.28;4997417;28;20089;-75
2023/04/27 09:39:05;;;;;;;12.75;1.80;;;16.30;97.20;;;15.47;100.00;97735.84;4992439;28;20042;-74
2023/04/27 09:41:33;;;;;;;10.57;1.92;;;16.40;95.70;;;15.92;100.00;97734.94;4994495;28;20064;-74
2023/04/27 09:44:00;;;;;;;7.55;2.22;;;16.50;96.70;;;15.46;100.00;97728.94;4993655;28;20051;-76
2023/04/27 09:46:32;;;;;;;6.75;1.65;;;16.60;97.10;;;16.35;100.00;97727.00;4987233;28;20054;-76
2023/04/27 09:49:03;;;;;;;7.73;1.93;;;17.00;96.40;;;15.81;100.00;97725.97;5001767;28;20043;-75
2023/04/27 09:51:30;;;;;;;6.93;1.85;;;17.20;95.00;;;16.58;100.00;97723.78;4990703;28;20061;-76
2023/04/27 09:54:01;;;;;;;4.07;1.63;;;17.30;94.60;;;16.65;100.00;97725.06;4993826;28;20042;-76
2023/04/27 09:57:08;;;;;;;8.23;1.80;;;17.70;94.80;;;17.59;100.00;97710.97;4995544;28;20142;-75
2023/04/27 10:00:09;;;;;;;6.05;1.60;;;18.00;94.80;;;17.84;100.00;97714.53;4989513;28;20058;-76
2023/04/27 10:03:13;;;;;;;6.73;1.80;;;18.40;93.20;;;18.40;100.00;97712.28;4990928;28;20070;-76
2023/04/27 10:06:18;;;;;;;10.60;1.80;;;18.80;93.00;;;18.05;100.00;97713.03;4990253;28;20791;-76
2023/04/27 10:08:45;;;;;;;5.53;1.60;;;18.70;92.00;;;17.81;100.00;97710.31;4996919;28;20070;-76
2023/04/27 10:11:16;;;;;;;8.85;2.25;;;18.50;92.00;;;18.25;96.63;97711.63;4994787;28;20149;-76
2023/04/27 10:13:54;;;;;;;5.43;1.83;;;18.80;91.20;;;17.55;98.01;97714.75;4990957;28;20058;-76
2023/04/27 10:16:21;;;;;;;7.50;1.73;;;18.90;90.90;;;18.30;97.14;97709.47;4990021;28;20056;-76
2023/04/27 10:18:54;;;;;;;6.07;1.58;;;19.00;90.70;;;18.02;96.98;97710.63;4983505;28;20045;-77
2023/04/27 10:21:22;;;;;;;5.18;1.52;;;18.90;90.70;;;18.51;98.94;97716.78;4990516;28;20089;-77
2023/04/27 10:23:51;;;;;;;4.38;1.27;;;19.20;91.50;;;19.28;94.47;97706.69;4986259;28;20547;-77
2023/04/27 10:26:26;;;;;;;6.60;1.55;;;19.40;90.00;;;19.88;92.84;97710.00;4971250;28;20054;-77
2023/04/27 10:29:03;;;;;;;5.07;1.55;;;19.70;90.90;;;19.38;94.16;97707.66;4984888;28;20046;-77
2023/04/27 10:31:30;;;;;;;5.05;1.42;;;20.30;90.50;;;19.29;95.38;97708.34;4995615;28;20137;-77